Clinchfield, Georgia
Current Conditions -  °F | °C
As of 7:35 PM on Saturday 25 Oct 2014 (Local Time) from KPXE Reporting Station
Clear Clear  
Wind Chill: 66°   Ceiling: Unl
Heat Index: 66°   Visibility: 10mi
Dew Point: 51°   Wind: 3mph
Humidity: 58%   Direction: 310°NW
Pressure: 30.01"   Gusts: NA
Location:  32.41°N, 83.64°W
Report Text: KPXE 252335Z AUTO 31003KT 10SM CLR 19/10 A3001 RMK AO2 T01870103
Loading
Personal Weather Stations






























Interactive Weather Map
Tropical Storm Tracking
New forecast layout! Learn more

10-Day Weather Forecast

Advertisements
Track Severe Weather on mobile